Time;durP1;ratioP1;P1;durP2;ratioP2;P2;SDS_P1;SDS_P2;PMS_P1;PMS_P2;Temp;Humidity;BMP_temperature;BMP_pressure;BME280_temperature;BME280_humidity;BME280_pressure;Samples;Min_cycle;Max_cycle;Signal;HPM_P1;HPM_P2
2020/12/17 00:00:25;;;;;;;8.82;7.50;;;10.20;95.60;;;;;;5045897;28;20100;-43
2020/12/17 00:02:51;;;;;;;9.90;8.65;;;10.20;95.60;;;;;;5046468;28;20040;-43
2020/12/17 00:05:17;;;;;;;9.73;8.30;;;10.10;95.60;;;;;;5045455;28;20357;-44
2020/12/17 00:07:43;;;;;;;10.10;8.57;;;10.10;95.60;;;;;;5046852;28;20114;-43
2020/12/17 00:10:10;;;;;;;9.30;7.50;;;10.10;95.70;;;;;;5045926;28;20025;-44
2020/12/17 00:12:36;;;;;;;9.63;8.07;;;10.10;96.00;;;;;;5045817;28;20029;-43
2020/12/17 00:15:05;;;;;;;10.25;7.93;;;10.10;95.80;;;;;;5046742;28;20040;-43
2020/12/17 00:17:30;;;;;;;10.43;7.85;;;10.10;95.80;;;;;;5045952;28;20128;-42
2020/12/17 00:19:56;;;;;;;8.55;7.15;;;10.10;95.80;;;;;;5046365;28;20127;-41
2020/12/17 00:22:21;;;;;;;8.38;6.53;;;10.10;95.90;;;;;;5049648;28;20476;-43
2020/12/17 00:24:47;;;;;;;10.27;7.90;;;10.10;95.90;;;;;;5047973;28;20146;-42
2020/12/17 00:27:12;;;;;;;11.00;8.13;;;10.10;95.90;;;;;;5047613;28;20124;-42
2020/12/17 00:29:38;;;;;;;8.20;7.30;;;10.10;95.90;;;;;;5050008;28;20028;-42
2020/12/17 00:32:03;;;;;;;8.48;7.15;;;10.10;95.90;;;;;;5049787;28;20142;-42
2020/12/17 00:34:29;;;;;;;8.10;6.80;;;10.10;95.90;;;;;;5048954;28;20030;-42
2020/12/17 00:36:54;;;;;;;10.63;7.97;;;10.10;95.90;;;;;;5049977;28;20044;-42
2020/12/17 00:39:20;;;;;;;8.90;8.00;;;10.10;95.80;;;;;;5049412;28;20036;-42
2020/12/17 00:41:47;;;;;;;9.43;7.40;;;10.10;95.90;;;;;;5049254;28;20543;-43
2020/12/17 00:44:13;;;;;;;8.20;6.55;;;10.10;95.90;;;;;;5049257;28;20021;-43
2020/12/17 00:46:39;;;;;;;9.10;7.97;;;10.10;95.90;;;;;;5049633;28;20041;-43
2020/12/17 00:49:04;;;;;;;9.30;7.32;;;10.10;95.80;;;;;;5049646;28;20074;-43
2020/12/17 00:51:30;;;;;;;12.48;8.20;;;10.10;95.90;;;;;;5049080;28;20025;-42
2020/12/17 00:53:55;;;;;;;8.43;7.20;;;10.10;95.80;;;;;;5049331;28;20017;-42
2020/12/17 00:56:21;;;;;;;9.57;7.63;;;10.10;95.80;;;;;;5048685;28;20644;-42
2020/12/17 00:58:47;;;;;;;7.47;6.50;;;10.10;95.80;;;;;;5049181;28;20091;-43
2020/12/17 01:01:12;;;;;;;7.55;6.57;;;10.20;95.80;;;;;;5048625;28;20063;-42
2020/12/17 01:03:38;;;;;;;8.85;7.40;;;10.20;95.80;;;;;;5049766;28;20392;-43
2020/12/17 01:06:07;;;;;;;8.25;6.40;;;10.20;95.80;;;;;;5049378;28;20079;-42
2020/12/17 01:08:34;;;;;;;8.23;7.40;;;10.20;95.80;;;;;;5048916;28;20052;-44
2020/12/17 01:11:00;;;;;;;9.07;7.70;;;10.20;95.70;;;;;;5049577;28;20029;-42
2020/12/17 01:13:25;;;;;;;8.57;7.05;;;10.20;95.70;;;;;;5048740;28;20368;-43
2020/12/17 01:15:50;;;;;;;10.23;7.40;;;10.20;95.70;;;;;;5048622;28;20063;-42
2020/12/17 01:18:16;;;;;;;9.35;7.50;;;10.20;95.70;;;;;;5048768;28;20047;-43
2020/12/17 01:20:41;;;;;;;8.00;6.47;;;10.20;95.60;;;;;;5048898;28;20059;-42
2020/12/17 01:23:07;;;;;;;10.23;7.40;;;10.20;95.70;;;;;;5048007;28;20037;-43
2020/12/17 01:25:32;;;;;;;8.55;7.25;;;10.20;95.50;;;;;;5049030;28;20056;-43
2020/12/17 01:27:58;;;;;;;9.02;7.05;;;10.20;95.40;;;;;;5049303;28;20044;-42
2020/12/17 01:30:24;;;;;;;9.30;7.13;;;10.20;95.60;;;;;;5048250;28;20045;-43
2020/12/17 01:32:52;;;;;;;8.15;6.82;;;10.20;95.60;;;;;;5048657;28;20025;-43
2020/12/17 01:35:17;;;;;;;7.50;6.70;;;10.20;95.50;;;;;;5048294;28;20032;-42
2020/12/17 01:37:43;;;;;;;8.48;7.00;;;10.20;95.50;;;;;;5048367;28;20032;-43
2020/12/17 01:40:08;;;;;;;7.88;6.90;;;10.20;95.40;;;;;;5048372;28;20136;-42
2020/12/17 01:42:34;;;;;;;8.05;7.25;;;10.20;95.40;;;;;;5048896;28;20021;-43
2020/12/17 01:44:59;;;;;;;9.40;7.95;;;10.20;95.30;;;;;;5048367;28;20025;-43
2020/12/17 01:47:34;;;;;;;9.27;7.47;;;10.20;95.20;;;;;;5047908;28;20037;-43
2020/12/17 01:50:02;;;;;;;9.50;7.10;;;10.30;95.20;;;;;;5048322;28;20036;-43
2020/12/17 01:52:27;;;;;;;9.07;7.30;;;10.30;95.20;;;;;;5047714;28;20033;-43
2020/12/17 01:54:54;;;;;;;11.02;7.20;;;10.30;95.00;;;;;;5048619;28;20509;-43
2020/12/17 01:57:20;;;;;;;7.53;6.53;;;10.30;95.10;;;;;;5047200;28;20373;-42
2020/12/17 01:59:48;;;;;;;9.23;7.43;;;10.30;95.10;;;;;;5048618;28;20534;-44
2020/12/17 02:02:17;;;;;;;8.15;6.82;;;10.30;95.00;;;;;;5047842;28;20029;-42
2020/12/17 02:04:44;;;;;;;8.02;7.13;;;10.30;95.00;;;;;;5047726;28;20032;-42
2020/12/17 02:07:10;;;;;;;8.70;7.80;;;10.30;95.00;;;;;;5047709;28;20036;-42
2020/12/17 02:09:36;;;;;;;10.25;7.70;;;10.30;95.10;;;;;;5048287;28;20491;-42
2020/12/17 02:12:03;;;;;;;8.73;7.22;;;10.30;95.00;;;;;;5047830;28;20037;-42
2020/12/17 02:14:28;;;;;;;10.95;7.90;;;10.30;95.10;;;;;;5047698;28;20039;-42
2020/12/17 02:16:54;;;;;;;8.73;7.20;;;10.20;95.20;;;;;;5048049;28;20037;-43
2020/12/17 02:19:20;;;;;;;8.75;7.53;;;10.20;95.20;;;;;;5046904;28;20100;-42
2020/12/17 02:21:46;;;;;;;9.23;8.20;;;10.20;95.30;;;;;;5048033;28;20025;-42
2020/12/17 02:24:13;;;;;;;9.30;7.55;;;10.20;95.30;;;;;;5047564;28;20023;-42
2020/12/17 02:26:38;;;;;;;8.32;7.40;;;10.20;95.30;;;;;;5047332;28;20033;-42
2020/12/17 02:29:04;;;;;;;9.82;7.72;;;10.20;95.40;;;;;;5048183;28;20119;-43
2020/12/17 02:31:30;;;;;;;8.75;7.68;;;10.20;95.40;;;;;;5046990;28;20021;-43
2020/12/17 02:33:55;;;;;;;8.70;7.03;;;10.20;95.40;;;;;;5047388;28;20021;-42
2020/12/17 02:36:21;;;;;;;9.88;7.40;;;10.20;95.40;;;;;;5047089;28;20696;-42
2020/12/17 02:38:47;;;;;;;7.63;6.90;;;10.20;95.40;;;;;;5047662;28;20115;-42
2020/12/17 02:41:13;;;;;;;11.18;7.63;;;10.20;95.50;;;;;;5046626;28;20033;-43
2020/12/17 02:43:42;;;;;;;10.02;7.25;;;10.20;95.40;;;;;;5046882;28;20464;-42
2020/12/17 02:46:08;;;;;;;10.07;7.63;;;10.20;95.40;;;;;;5046658;28;20043;-43
2020/12/17 02:48:33;;;;;;;9.40;7.43;;;10.20;95.50;;;;;;5047346;28;20017;-43
2020/12/17 02:50:59;;;;;;;8.40;7.15;;;10.20;95.50;;;;;;5047170;28;20031;-42
2020/12/17 02:53:24;;;;;;;9.02;7.32;;;10.20;95.50;;;;;;5046843;28;20033;-43
2020/12/17 02:55:50;;;;;;;8.20;7.18;;;10.20;95.50;;;;;;5047262;28;20031;-43
2020/12/17 02:58:16;;;;;;;7.93;7.13;;;10.20;95.50;;;;;;5046568;28;20071;-43
2020/12/17 03:00:42;;;;;;;6.68;6.07;;;10.20;95.50;;;;;;5047055;28;20035;-42
2020/12/17 03:03:07;;;;;;;9.35;7.13;;;10.20;95.50;;;;;;5046655;28;20495;-42
2020/12/17 03:05:33;;;;;;;7.88;6.82;;;10.20;95.50;;;;;;5047055;28;20024;-43
2020/12/17 03:07:59;;;;;;;7.88;6.82;;;10.20;95.50;;;;;;5047040;28;20032;-42
2020/12/17 03:10:25;;;;;;;9.90;7.18;;;10.20;95.50;;;;;;5046753;28;20025;-44
2020/12/17 03:12:51;;;;;;;8.57;7.68;;;10.20;95.40;;;;;;5047045;28;20044;-42
2020/12/17 03:15:16;;;;;;;8.80;7.43;;;10.20;95.40;;;;;;5046249;28;20021;-41
2020/12/17 03:17:42;;;;;;;8.80;7.65;;;10.20;95.40;;;;;;5046967;28;20021;-42
2020/12/17 03:20:09;;;;;;;10.70;7.22;;;10.20;95.50;;;;;;5046487;28;20307;-43
2020/12/17 03:22:36;;;;;;;9.82;6.93;;;10.30;95.50;;;;;;5046715;28;20029;-43
2020/12/17 03:25:03;;;;;;;8.15;7.07;;;10.30;95.40;;;;;;5046794;28;20029;-43
2020/12/17 03:27:28;;;;;;;11.05;7.00;;;10.30;95.50;;;;;;5046078;28;20567;-43
2020/12/17 03:29:54;;;;;;;8.10;6.88;;;10.30;95.40;;;;;;5046549;28;20078;-42
2020/12/17 03:32:19;;;;;;;11.13;6.90;;;10.30;95.40;;;;;;5046111;28;20033;-42
2020/12/17 03:34:45;;;;;;;7.60;6.85;;;10.30;95.40;;;;;;5046800;28;20444;-43
2020/12/17 03:37:11;;;;;;;8.88;6.72;;;10.30;95.40;;;;;;5045980;28;20032;-44
2020/12/17 03:39:37;;;;;;;7.03;6.32;;;10.40;95.50;;;;;;5046686;28;20025;-43
2020/12/17 03:42:03;;;;;;;7.60;6.47;;;10.40;95.50;;;;;;5046798;28;20029;-42
2020/12/17 03:44:28;;;;;;;7.47;6.45;;;10.30;95.40;;;;;;5045873;28;20052;-43
2020/12/17 03:46:55;;;;;;;7.43;6.53;;;10.40;95.40;;;;;;5046656;28;20036;-43
2020/12/17 03:49:20;;;;;;;10.18;6.70;;;10.40;95.40;;;;;;5046230;28;20507;-44
2020/12/17 03:51:46;;;;;;;7.70;6.50;;;10.40;95.50;;;;;;5046368;28;20116;-43
2020/12/17 03:54:11;;;;;;;8.98;6.50;;;10.30;95.50;;;;;;5046682;28;20540;-43
2020/12/17 03:56:37;;;;;;;8.43;7.22;;;10.30;95.50;;;;;;5050122;28;20029;-43
2020/12/17 03:59:03;;;;;;;8.80;6.40;;;10.30;95.60;;;;;;5050793;28;20037;-43
2020/12/17 04:01:28;;;;;;;8.52;6.82;;;10.30;95.60;;;;;;5049989;28;20031;-42
2020/12/17 04:03:55;;;;;;;7.63;6.82;;;10.30;95.80;;;;;;5050292;28;20649;-43
2020/12/17 04:06:21;;;;;;;10.10;7.20;;;10.30;95.70;;;;;;5050057;28;20045;-43
2020/12/17 04:08:46;;;;;;;7.00;6.28;;;10.20;95.80;;;;;;5050709;28;20049;-43
2020/12/17 04:11:12;;;;;;;10.02;7.07;;;10.30;95.90;;;;;;5049446;28;20548;-42
2020/12/17 04:13:38;;;;;;;7.43;6.57;;;10.30;95.90;;;;;;5050349;28;20039;-42
2020/12/17 04:16:03;;;;;;;7.28;6.45;;;10.30;95.90;;;;;;5050481;28;20036;-43
2020/12/17 04:18:29;;;;;;;9.75;6.72;;;10.30;96.00;;;;;;5049295;28;20500;-43
2020/12/17 04:20:55;;;;;;;13.18;7.55;;;10.20;95.90;;;;;;5050344;28;20039;-43
2020/12/17 04:23:21;;;;;;;9.88;6.75;;;10.20;96.00;;;;;;5050050;28;20067;-43
2020/12/17 04:25:47;;;;;;;8.43;6.97;;;10.30;96.00;;;;;;5049735;28;20029;-44
2020/12/17 04:28:12;;;;;;;8.68;7.03;;;10.30;96.10;;;;;;5049504;28;20029;-43
2020/12/17 04:30:38;;;;;;;9.43;7.32;;;10.30;96.20;;;;;;5049949;28;20435;-43
2020/12/17 04:33:04;;;;;;;9.82;6.78;;;10.20;96.30;;;;;;5049242;28;20043;-42
2020/12/17 04:35:29;;;;;;;8.90;6.28;;;10.20;96.30;;;;;;5049591;28;20032;-42
2020/12/17 04:37:55;;;;;;;10.30;6.65;;;10.20;96.60;;;;;;5050329;28;20055;-43
2020/12/17 04:40:20;;;;;;;8.07;6.10;;;10.20;96.30;;;;;;5049026;28;20503;-43
2020/12/17 04:42:48;;;;;;;8.75;6.40;;;10.20;96.40;;;;;;5050167;28;20028;-43
2020/12/17 04:45:14;;;;;;;6.80;6.10;;;10.20;96.40;;;;;;5049200;28;20415;-43
2020/12/17 04:47:40;;;;;;;9.07;5.60;;;10.20;96.50;;;;;;5048959;28;20059;-42
2020/12/17 04:50:08;;;;;;;9.15;6.70;;;10.20;96.50;;;;;;5049833;28;20690;-42
2020/12/17 04:52:38;;;;;;;7.30;5.65;;;10.20;96.50;;;;;;5049731;28;20033;-42
2020/12/17 04:55:05;;;;;;;10.32;7.28;;;10.20;96.50;;;;;;5049181;28;20021;-43
2020/12/17 04:57:32;;;;;;;7.75;6.63;;;10.20;96.70;;;;;;5049214;28;20055;-42
2020/12/17 04:59:58;;;;;;;10.65;6.97;;;10.20;96.90;;;;;;5048831;28;20024;-42
2020/12/17 05:02:24;;;;;;;9.48;7.10;;;10.20;96.90;;;;;;5048882;28;20033;-42
2020/12/17 05:04:52;;;;;;;8.95;6.30;;;10.20;97.00;;;;;;5049222;28;20483;-42
2020/12/17 05:07:22;;;;;;;7.85;6.70;;;10.20;97.10;;;;;;5047813;28;20087;-42
2020/12/17 05:09:49;;;;;;;9.07;6.32;;;10.20;97.00;;;;;;5049578;28;20067;-42
2020/12/17 05:12:15;;;;;;;8.43;7.07;;;10.20;97.10;;;;;;5048933;28;20037;-42
2020/12/17 05:14:41;;;;;;;7.70;6.82;;;10.20;97.10;;;;;;5049252;28;20021;-42
2020/12/17 05:17:07;;;;;;;7.13;6.43;;;10.20;97.10;;;;;;5048929;28;20472;-43
2020/12/17 05:19:34;;;;;;;7.70;6.38;;;10.20;97.10;;;;;;5049052;28;20032;-42
2020/12/17 05:22:01;;;;;;;9.43;7.20;;;10.20;97.30;;;;;;5048904;28;20036;-43
2020/12/17 05:24:28;;;;;;;10.10;6.82;;;10.20;97.40;;;;;;5048366;28;20029;-44
2020/12/17 05:26:57;;;;;;;8.60;6.78;;;10.20;97.40;;;;;;5048828;28;20580;-42
2020/12/17 05:29:23;;;;;;;8.85;7.28;;;10.20;97.60;;;;;;5048008;28;20029;-44
2020/12/17 05:31:50;;;;;;;7.28;6.28;;;10.20;97.60;;;;;;5049230;28;20039;-42
2020/12/17 05:34:16;;;;;;;8.38;6.68;;;10.20;97.50;;;;;;5048339;28;20036;-43
2020/12/17 05:36:43;;;;;;;8.45;7.20;;;10.20;97.60;;;;;;5048517;28;20029;-42
2020/12/17 05:39:15;;;;;;;9.60;7.32;;;10.20;97.60;;;;;;5048115;28;20060;-42
2020/12/17 05:41:41;;;;;;;9.82;6.88;;;10.20;97.70;;;;;;5048842;28;20059;-42
2020/12/17 05:44:08;;;;;;;7.57;6.70;;;10.20;97.80;;;;;;5048169;28;20028;-43
2020/12/17 05:46:38;;;;;;;11.27;8.05;;;10.20;97.80;;;;;;5048719;28;20045;-42
2020/12/17 05:49:12;;;;;;;9.55;7.35;;;10.20;97.90;;;;;;5048585;28;20154;-43
2020/12/17 05:51:38;;;;;;;8.20;6.78;;;10.20;98.00;;;;;;5048320;28;20119;-42
2020/12/17 05:54:08;;;;;;;7.82;7.13;;;10.20;98.00;;;;;;5048385;28;20088;-43
2020/12/17 05:56:34;;;;;;;7.85;7.05;;;10.20;98.00;;;;;;5048512;28;20087;-42
2020/12/17 05:59:04;;;;;;;9.23;7.40;;;10.20;98.00;;;;;;5048405;28;20423;-43
2020/12/17 06:01:30;;;;;;;8.73;7.70;;;10.20;98.00;;;;;;5048001;28;20043;-43
2020/12/17 06:03:56;;;;;;;8.75;7.43;;;10.20;98.00;;;;;;5048186;28;20044;-43
2020/12/17 06:06:23;;;;;;;9.60;7.53;;;10.20;98.00;;;;;;5048017;28;20087;-43
2020/12/17 06:08:53;;;;;;;9.20;7.90;;;10.20;98.10;;;;;;5048265;28;20112;-43
2020/12/17 06:11:22;;;;;;;7.95;7.15;;;10.20;98.00;;;;;;5047847;28;20090;-43
2020/12/17 06:13:54;;;;;;;8.32;7.57;;;10.20;98.00;;;;;;5048244;28;20025;-43
2020/12/17 06:16:21;;;;;;;11.55;7.50;;;10.20;98.00;;;;;;5047547;28;20460;-42
2020/12/17 06:18:54;;;;;;;8.25;7.43;;;10.20;98.00;;;;;;5046493;28;20032;-43
2020/12/17 06:21:21;;;;;;;8.18;7.38;;;10.30;98.00;;;;;;5047788;28;20035;-44
2020/12/17 06:23:54;;;;;;;8.32;7.32;;;10.30;98.00;;;;;;5047976;28;20029;-43
2020/12/17 06:26:20;;;;;;;8.80;7.95;;;10.30;98.00;;;;;;5047140;28;20115;-43
2020/12/17 06:28:48;;;;;;;7.40;6.70;;;10.20;97.90;;;;;;5048176;28;20579;-42
2020/12/17 06:31:17;;;;;;;8.95;7.78;;;10.30;97.90;;;;;;5047239;28;20021;-43
2020/12/17 06:33:43;;;;;;;9.38;8.43;;;10.30;97.90;;;;;;5047726;28;20032;-44
2020/12/17 06:36:30;;;;;;;9.43;8.52;;;10.30;97.90;;;;;;5047333;28;20104;-43
2020/12/17 06:38:55;;;;;;;10.23;9.23;;;10.20;97.90;;;;;;5047533;28;20461;-43
2020/12/17 06:41:24;;;;;;;11.45;9.75;;;10.30;97.90;;;;;;5047287;28;20025;-43
2020/12/17 06:43:51;;;;;;;11.18;10.07;;;10.20;97.90;;;;;;5047650;28;20023;-43
2020/12/17 06:46:38;;;;;;;12.15;10.85;;;10.20;97.90;;;;;;5046801;28;20050;-43
2020/12/17 06:49:08;;;;;;;10.65;9.65;;;10.20;97.90;;;;;;5047550;28;20370;-43
2020/12/17 06:51:40;;;;;;;12.25;11.07;;;10.20;97.90;;;;;;5047793;28;20393;-43
2020/12/17 06:54:08;;;;;;;12.23;10.90;;;10.20;97.90;;;;;;5047359;28;20057;-42
2020/12/17 06:56:37;;;;;;;12.50;10.93;;;10.20;97.90;;;;;;5047429;28;20401;-42
2020/12/17 06:59:17;;;;;;;12.45;11.25;;;10.20;97.80;;;;;;5044837;28;20051;-43
2020/12/17 07:01:44;;;;;;;12.38;11.07;;;10.10;97.80;;;;;;5044549;28;20025;-43
2020/12/17 07:04:11;;;;;;;12.80;11.00;;;10.10;97.90;;;;;;5045673;28;20180;-43
2020/12/17 07:06:37;;;;;;;12.10;10.90;;;10.10;97.90;;;;;;5046194;28;20043;-43
2020/12/17 07:09:03;;;;;;;12.48;11.18;;;10.10;97.90;;;;;;5046285;28;20033;-43
2020/12/17 07:11:46;;;;;;;13.55;12.05;;;10.10;97.90;;;;;;5046062;28;20021;-41
2020/12/17 07:14:26;;;;;;;13.10;11.80;;;10.10;97.90;;;;;;5045098;28;20033;-43
2020/12/17 07:16:59;;;;;;;13.80;12.43;;;10.10;97.90;;;;;;5046277;28;20530;-42
2020/12/17 07:19:44;;;;;;;12.45;11.25;;;10.00;97.80;;;;;;5045544;28;20029;-42
2020/12/17 07:22:14;;;;;;;13.40;12.10;;;10.10;97.90;;;;;;5045249;28;20071;-42
2020/12/17 07:24:46;;;;;;;13.57;12.20;;;10.00;97.90;;;;;;5045963;28;20032;-43
2020/12/17 07:27:13;;;;;;;14.02;12.63;;;10.10;97.90;;;;;;5046623;28;20171;-41
2020/12/17 07:29:44;;;;;;;14.35;12.85;;;10.00;97.80;;;;;;5045486;28;20551;-42
2020/12/17 07:32:33;;;;;;;14.25;12.75;;;10.00;97.90;;;;;;5063056;28;20066;-43
2020/12/17 07:35:19;;;;;;;15.32;13.68;;;10.00;97.90;;;;;;5067040;28;20027;-43
2020/12/17 07:37:59;;;;;;;16.00;14.40;;;10.00;97.90;;;;;;5066621;28;20123;-43
2020/12/17 07:40:46;;;;;;;18.20;16.30;;;10.10;97.90;;;;;;5066329;28;20028;-42
2020/12/17 07:43:15;;;;;;;16.77;14.88;;;10.10;97.80;;;;;;5065906;28;20059;-43
2020/12/17 07:45:52;;;;;;;18.85;16.85;;;10.10;97.80;;;;;;5066778;28;20069;-43
2020/12/17 07:48:34;;;;;;;19.70;16.77;;;10.10;97.80;;;;;;5066080;28;20063;-42
2020/12/17 07:51:04;;;;;;;17.25;15.35;;;10.10;97.80;;;;;;5063370;28;20116;-42
2020/12/17 07:53:30;;;;;;;20.15;17.75;;;10.10;97.80;;;;;;5055718;28;20388;-43
2020/12/17 07:55:56;;;;;;;17.88;15.77;;;10.10;97.80;;;;;;5056896;28;20017;-43
2020/12/17 07:58:22;;;;;;;16.55;14.85;;;10.10;97.80;;;;;;5054599;28;20052;-43
2020/12/17 08:00:47;;;;;;;17.55;15.55;;;10.10;97.80;;;;;;5053714;28;20024;-43
2020/12/17 08:03:13;;;;;;;18.42;16.52;;;10.10;97.80;;;;;;5054777;28;20083;-45
2020/12/17 08:05:39;;;;;;;20.42;18.27;;;10.10;97.80;;;;;;5059222;28;20017;-41
2020/12/17 08:08:05;;;;;;;17.83;15.98;;;10.10;97.70;;;;;;5059521;28;20020;-43
2020/12/17 08:10:38;;;;;;;17.85;15.98;;;10.10;97.70;;;;;;5050222;28;20100;-43
2020/12/17 08:13:03;;;;;;;17.60;15.80;;;10.10;97.80;;;;;;5046714;28;20116;-44
2020/12/17 08:15:28;;;;;;;19.02;17.13;;;10.10;97.80;;;;;;5044467;28;20140;-42
2020/12/17 08:17:57;;;;;;;17.42;15.68;;;10.10;97.70;;;;;;5044202;28;20044;-43
2020/12/17 08:20:25;;;;;;;18.35;16.45;;;10.10;97.70;;;;;;5046102;28;20388;-42
2020/12/17 08:22:52;;;;;;;16.90;15.20;;;10.10;97.70;;;;;;5046370;28;20029;-42
2020/12/17 08:25:17;;;;;;;17.88;16.08;;;10.10;97.70;;;;;;5045534;28;20028;-43
2020/12/17 08:27:45;;;;;;;19.05;17.05;;;10.10;97.70;;;;;;5046500;28;20043;-43
2020/12/17 08:30:11;;;;;;;19.15;17.17;;;10.10;97.70;;;;;;5043832;28;20455;-42
2020/12/17 08:32:45;;;;;;;19.92;17.90;;;10.10;97.60;;;;;;5048088;28;20017;-42
2020/12/17 08:35:11;;;;;;;17.38;15.68;;;10.10;97.60;;;;;;5045936;28;20159;-43
2020/12/17 08:37:42;;;;;;;15.85;14.30;;;10.10;97.70;;;;;;5046333;28;20124;-43
2020/12/17 08:40:10;;;;;;;16.23;14.60;;;10.20;97.70;;;;;;5043974;28;20476;-43
2020/12/17 08:42:37;;;;;;;16.50;14.80;;;10.20;97.60;;;;;;5048978;28;20048;-42
2020/12/17 08:45:08;;;;;;;16.27;14.30;;;10.20;97.60;;;;;;5049362;28;20029;-42
2020/12/17 08:47:38;;;;;;;16.17;14.50;;;10.20;97.60;;;;;;5049794;28;20488;-42
2020/12/17 08:50:05;;;;;;;15.15;13.65;;;10.20;97.50;;;;;;5049569;28;20112;-43
2020/12/17 08:52:32;;;;;;;15.73;13.50;;;10.20;97.50;;;;;;5047384;28;20044;-43
2020/12/17 08:55:09;;;;;;;15.18;13.05;;;10.20;97.50;;;;;;5049354;28;20522;-42
2020/12/17 08:57:35;;;;;;;14.95;13.45;;;10.30;97.50;;;;;;5039498;28;20047;-43
2020/12/17 09:00:02;;;;;;;14.82;13.23;;;10.30;97.40;;;;;;5060586;28;20111;-42
2020/12/17 09:02:29;;;;;;;16.45;14.75;;;10.30;97.40;;;;;;5069155;28;20116;-43
2020/12/17 09:04:59;;;;;;;16.67;14.23;;;10.30;97.40;;;;;;5069194;28;20192;-43
2020/12/17 09:07:29;;;;;;;16.20;14.60;;;10.30;97.30;;;;;;5067725;28;20029;-43
2020/12/17 09:10:08;;;;;;;15.63;13.75;;;10.20;97.30;;;;;;5069637;28;20024;-43
2020/12/17 09:12:34;;;;;;;17.42;15.63;;;10.30;97.30;;;;;;5069628;28;20064;-44
2020/12/17 09:15:11;;;;;;;16.60;13.80;;;10.20;97.30;;;;;;5068823;28;20059;-43
2020/12/17 09:17:38;;;;;;;15.80;14.05;;;10.20;97.40;;;;;;5069470;28;20029;-43
2020/12/17 09:20:20;;;;;;;15.23;12.90;;;10.20;97.30;;;;;;5069011;28;20021;-46
2020/12/17 09:22:46;;;;;;;14.23;12.65;;;10.20;97.40;;;;;;5069437;28;20033;-42
2020/12/17 09:25:13;;;;;;;12.45;11.23;;;10.20;97.40;;;;;;5066604;28;20044;-44
2020/12/17 09:27:39;;;;;;;13.52;12.00;;;10.30;97.40;;;;;;5069007;28;20523;-43
2020/12/17 09:30:18;;;;;;;12.40;11.15;;;10.40;97.40;;;;;;5069164;28;20506;-44
2020/12/17 09:32:51;;;;;;;12.60;11.30;;;10.40;97.40;;;;;;5069098;28;20028;-43
2020/12/17 09:35:17;;;;;;;12.75;11.45;;;10.50;97.30;;;;;;5068189;28;20101;-43
2020/12/17 09:38:08;;;;;;;10.88;9.77;;;10.50;97.10;;;;;;5069133;28;20025;-43
2020/12/17 09:40:37;;;;;;;12.55;10.38;;;10.60;97.10;;;;;;5068914;28;20025;-42
2020/12/17 09:43:14;;;;;;;12.85;9.93;;;10.60;96.80;;;;;;5068715;28;20116;-43
2020/12/17 09:45:41;;;;;;;10.48;9.00;;;10.60;96.80;;;;;;5053535;28;20083;-43
2020/12/17 09:48:18;;;;;;;10.75;9.35;;;10.60;96.80;;;;;;5047670;28;20511;-42
2020/12/17 09:50:51;;;;;;;11.00;9.15;;;10.60;96.60;;;;;;5033711;28;20761;-43
2020/12/17 09:53:17;;;;;;;10.50;8.50;;;10.60;96.50;;;;;;5047567;28;20514;-42
2020/12/17 09:55:43;;;;;;;8.85;7.95;;;10.60;96.50;;;;;;5056846;28;20036;-42
2020/12/17 09:58:08;;;;;;;9.65;7.93;;;10.70;96.50;;;;;;5057493;28;20053;-42
2020/12/17 10:00:34;;;;;;;9.82;7.78;;;10.70;96.20;;;;;;5061763;28;20127;-43
2020/12/17 10:03:00;;;;;;;10.30;7.25;;;10.70;96.20;;;;;;5068041;28;20097;-43
2020/12/17 10:05:25;;;;;;;11.30;7.95;;;10.70;95.80;;;;;;5068126;28;20387;-43
2020/12/17 10:07:50;;;;;;;16.08;8.00;;;10.60;95.80;;;;;;5068465;28;20805;-43
2020/12/17 10:10:16;;;;;;;8.40;6.90;;;10.70;95.80;;;;;;5067313;28;20025;-43
2020/12/17 10:12:42;;;;;;;10.00;7.40;;;10.70;95.80;;;;;;5068640;28;20437;-43
2020/12/17 10:15:07;;;;;;;8.88;6.57;;;10.70;95.70;;;;;;5067559;28;20031;-43
2020/12/17 10:17:33;;;;;;;9.05;6.47;;;10.70;95.40;;;;;;5067307;28;20155;-42
2020/12/17 10:19:59;;;;;;;9.75;6.47;;;10.70;95.40;;;;;;5068340;28;20465;-44
2020/12/17 10:22:26;;;;;;;8.18;5.88;;;10.70;95.50;;;;;;5067093;28;20206;-44
2020/12/17 10:24:51;;;;;;;7.95;5.80;;;10.70;95.50;;;;;;5067489;28;20032;-43
2020/12/17 10:27:17;;;;;;;12.13;7.20;;;10.70;95.60;;;;;;5067585;28;20051;-43
2020/12/17 10:29:42;;;;;;;8.40;5.95;;;10.70;95.30;;;;;;5067839;28;20501;-43
2020/12/17 10:32:08;;;;;;;9.70;6.43;;;10.80;95.40;;;;;;5067309;28;20039;-42
2020/12/17 10:34:33;;;;;;;7.15;6.05;;;10.80;95.00;;;;;;5068111;28;20047;-42
2020/12/17 10:36:58;;;;;;;7.43;6.25;;;10.80;94.80;;;;;;5066335;28;20016;-42
2020/12/17 10:39:24;;;;;;;8.70;6.07;;;10.80;95.00;;;;;;5060730;28;20476;-43
2020/12/17 10:41:49;;;;;;;7.20;6.32;;;10.80;95.40;;;;;;5052893;28;20028;-43
2020/12/17 10:44:15;;;;;;;11.98;6.30;;;10.80;95.00;;;;;;5047499;28;20697;-43
2020/12/17 10:46:40;;;;;;;7.03;5.70;;;10.80;94.80;;;;;;5047025;28;20497;-43
2020/12/17 10:49:06;;;;;;;8.98;6.32;;;10.90;94.80;;;;;;5047255;28;20027;-43
2020/12/17 10:51:33;;;;;;;6.95;5.90;;;10.90;95.00;;;;;;5047110;28;20381;-43
2020/12/17 10:53:58;;;;;;;8.43;5.68;;;10.80;94.70;;;;;;5047133;28;20021;-43
2020/12/17 10:56:24;;;;;;;8.75;5.85;;;10.90;94.60;;;;;;5047052;28;20029;-43
2020/12/17 10:58:50;;;;;;;11.13;6.00;;;10.80;94.30;;;;;;5046997;28;20465;-43
2020/12/17 11:01:23;;;;;;;7.65;5.95;;;10.90;94.30;;;;;;5046792;28;20492;-43
2020/12/17 11:03:50;;;;;;;10.63;5.68;;;10.90;94.30;;;;;;5046918;28;20028;-42
2020/12/17 11:06:17;;;;;;;12.07;6.28;;;10.90;94.40;;;;;;5046442;28;20047;-43
2020/12/17 11:08:43;;;;;;;10.95;5.88;;;10.90;94.40;;;;;;5047178;28;20082;-42
2020/12/17 11:11:10;;;;;;;8.23;6.22;;;10.90;94.50;;;;;;5055920;28;20111;-43
2020/12/17 11:13:35;;;;;;;8.68;6.00;;;11.00;94.60;;;;;;5067273;28;20059;-44
2020/12/17 11:16:01;;;;;;;11.93;6.72;;;11.00;94.40;;;;;;5067130;28;20361;-42
2020/12/17 11:18:26;;;;;;;7.38;5.63;;;11.00;94.40;;;;;;5066508;28;20031;-43
2020/12/17 11:20:51;;;;;;;11.45;6.20;;;11.10;94.30;;;;;;5066759;28;20025;-42
2020/12/17 11:23:17;;;;;;;7.53;5.93;;;11.20;94.20;;;;;;5056951;28;20033;-42
2020/12/17 11:25:42;;;;;;;11.00;5.85;;;11.20;94.20;;;;;;5055770;28;20032;-43
2020/12/17 11:28:08;;;;;;;8.48;5.55;;;11.30;93.90;;;;;;5056062;28;20451;-43
2020/12/17 11:30:35;;;;;;;10.52;6.03;;;11.30;93.90;;;;;;5049683;28;20029;-43
2020/12/17 11:33:01;;;;;;;10.90;6.53;;;11.40;93.90;;;;;;5046850;28;20029;-43
2020/12/17 11:35:28;;;;;;;9.55;5.93;;;11.40;93.80;;;;;;5045909;28;20480;-42
2020/12/17 11:37:53;;;;;;;8.23;5.30;;;11.50;93.70;;;;;;5046883;28;20029;-43
2020/12/17 11:40:23;;;;;;;12.30;6.10;;;11.50;93.60;;;;;;5046620;28;20118;-43
2020/12/17 11:42:50;;;;;;;12.20;5.65;;;11.50;93.40;;;;;;5046503;28;20396;-43
2020/12/17 11:45:15;;;;;;;10.43;5.57;;;11.50;93.50;;;;;;5046065;28;20037;-43
2020/12/17 11:47:41;;;;;;;6.38;5.60;;;11.40;93.40;;;;;;5046542;28;20029;-43
2020/12/17 11:50:07;;;;;;;10.32;6.35;;;11.40;93.50;;;;;;5046320;28;20029;-43
2020/12/17 11:52:34;;;;;;;9.30;5.50;;;11.30;93.20;;;;;;5046479;28;20029;-43
2020/12/17 11:55:04;;;;;;;11.25;6.10;;;11.30;93.30;;;;;;5046436;28;20536;-43
2020/12/17 11:57:30;;;;;;;10.45;6.05;;;11.30;93.40;;;;;;5046490;28;20041;-43
2020/12/17 11:59:55;;;;;;;9.55;6.68;;;11.20;93.40;;;;;;5046708;28;20048;-44
2020/12/17 12:02:21;;;;;;;14.90;7.18;;;11.20;93.30;;;;;;5045821;28;20033;-43
2020/12/17 12:04:46;;;;;;;10.48;6.28;;;11.20;93.30;;;;;;5046489;28;20036;-43
2020/12/17 12:07:12;;;;;;;8.07;5.88;;;11.20;93.30;;;;;;5046049;28;20378;-43
2020/12/17 12:09:37;;;;;;;10.82;6.10;;;11.20;93.30;;;;;;5063360;28;20025;-43
2020/12/17 12:12:03;;;;;;;9.95;6.38;;;11.20;93.20;;;;;;5066895;28;20029;-44
2020/12/17 12:14:29;;;;;;;8.25;6.07;;;11.30;93.40;;;;;;5065643;28;20024;-43
2020/12/17 12:16:54;;;;;;;10.00;6.30;;;11.30;93.40;;;;;;5069274;28;20029;-43
2020/12/17 12:19:23;;;;;;;9.45;6.05;;;11.30;93.40;;;;;;5070061;28;20017;-43
2020/12/17 12:21:53;;;;;;;11.02;6.30;;;11.30;93.30;;;;;;5070572;28;20035;-43
2020/12/17 12:24:18;;;;;;;7.30;6.57;;;11.30;93.40;;;;;;5069561;28;20024;-44
2020/12/17 12:26:44;;;;;;;10.15;6.05;;;11.40;93.30;;;;;;5070509;28;20043;-43
2020/12/17 12:29:10;;;;;;;11.40;6.00;;;11.40;93.10;;;;;;5069563;28;20035;-43
2020/12/17 12:31:35;;;;;;;14.20;6.80;;;11.40;93.00;;;;;;5069585;28;20024;-42
2020/12/17 12:34:01;;;;;;;8.18;6.35;;;11.40;92.90;;;;;;5070193;28;20086;-42
2020/12/17 12:36:27;;;;;;;10.70;5.80;;;11.40;93.00;;;;;;5069612;28;20029;-43
2020/12/17 12:38:52;;;;;;;11.13;6.30;;;11.40;92.90;;;;;;5069600;28;20464;-43
2020/12/17 12:41:19;;;;;;;8.25;6.00;;;11.30;92.80;;;;;;5069786;28;20622;-42